Time;durP1;ratioP1;P1;durP2;ratioP2;P2;SDS_P1;SDS_P2;PMS_P1;PMS_P2;Temp;Humidity;BMP_temperature;BMP_pressure;BME280_temperature;BME280_humidity;BME280_pressure;Samples;Min_cycle;Max_cycle;Signal;HPM_P1;HPM_P2
2022/07/25 00:01:36;;;;;;;7.03;5.40;;;20.80;99.90;;;;;;5055362;28;20033;-59
2022/07/25 00:04:02;;;;;;;8.82;6.15;;;20.70;99.90;;;;;;5054787;28;20062;-60
2022/07/25 00:06:27;;;;;;;10.05;5.47;;;20.60;99.90;;;;;;5053919;28;20553;-57
2022/07/25 00:08:53;;;;;;;7.50;5.45;;;20.60;99.90;;;;;;5053909;28;20119;-52
2022/07/25 00:11:18;;;;;;;11.15;6.13;;;20.50;99.90;;;;;;5053826;28;20029;-59
2022/07/25 00:13:44;;;;;;;8.93;5.85;;;20.50;99.90;;;;;;5055134;28;20053;-54
2022/07/25 00:16:10;;;;;;;11.70;6.72;;;20.40;99.90;;;;;;5055372;28;20021;-56
2022/07/25 00:18:35;;;;;;;12.18;6.18;;;20.30;99.90;;;;;;5055410;28;20033;-58
2022/07/25 00:21:01;;;;;;;8.80;6.25;;;20.30;99.90;;;;;;5053817;28;20083;-58
2022/07/25 00:23:26;;;;;;;7.93;5.55;;;20.30;99.90;;;;;;5053889;28;20032;-59
2022/07/25 00:25:52;;;;;;;9.85;6.32;;;20.30;99.90;;;;;;5053907;28;20025;-59
2022/07/25 00:28:18;;;;;;;7.68;6.03;;;20.30;99.90;;;;;;5053749;28;20025;-59
2022/07/25 00:30:44;;;;;;;9.98;6.97;;;20.20;99.90;;;;;;5053590;28;20036;-58
2022/07/25 00:33:09;;;;;;;12.43;6.95;;;20.10;99.90;;;;;;5053725;28;20028;-57
2022/07/25 00:35:35;;;;;;;10.60;6.75;;;20.00;99.90;;;;;;5054363;28;20028;-57
2022/07/25 00:38:00;;;;;;;7.40;5.82;;;19.90;99.90;;;;;;5054851;28;20021;-58
2022/07/25 00:40:26;;;;;;;7.50;6.20;;;19.80;99.90;;;;;;5054654;28;20044;-59
2022/07/25 00:42:52;;;;;;;17.15;7.45;;;19.80;99.90;;;;;;5055010;28;20025;-59
2022/07/25 00:45:17;;;;;;;11.32;6.60;;;19.80;99.90;;;;;;5054675;28;20368;-59
2022/07/25 00:47:43;;;;;;;10.48;6.68;;;19.70;99.90;;;;;;5053314;28;20025;-59
2022/07/25 00:50:09;;;;;;;11.77;5.90;;;19.70;99.90;;;;;;5054703;28;20444;-58
2022/07/25 00:52:35;;;;;;;7.60;5.72;;;19.70;99.90;;;;;;5054732;28;20025;-59
2022/07/25 00:55:01;;;;;;;10.30;7.07;;;19.70;99.90;;;;;;5052471;28;20094;-60
2022/07/25 00:57:26;;;;;;;11.98;6.50;;;19.70;99.90;;;;;;5053233;28;20479;-58
2022/07/25 00:59:52;;;;;;;12.52;6.60;;;19.70;99.90;;;;;;5053077;28;20537;-59
2022/07/25 01:02:17;;;;;;;10.55;6.32;;;19.70;99.90;;;;;;5054373;28;20159;-57
2022/07/25 01:04:43;;;;;;;11.63;6.60;;;19.70;99.90;;;;;;5052982;28;20032;-58
2022/07/25 01:07:09;;;;;;;11.02;6.47;;;19.70;99.90;;;;;;5053040;28;20025;-58
2022/07/25 01:09:35;;;;;;;7.60;5.75;;;19.50;99.90;;;;;;5053610;28;20123;-59
2022/07/25 01:12:01;;;;;;;10.15;6.03;;;19.50;99.90;;;;;;5053141;28;20029;-59
2022/07/25 01:14:27;;;;;;;7.65;6.07;;;19.60;99.90;;;;;;5052760;28;20025;-59
2022/07/25 01:16:52;;;;;;;8.65;5.80;;;19.60;99.90;;;;;;5054050;28;20028;-55
2022/07/25 01:19:18;;;;;;;8.73;6.10;;;19.60;99.90;;;;;;5053737;28;20025;-60
2022/07/25 01:21:43;;;;;;;10.05;6.78;;;19.60;99.90;;;;;;5053977;28;20091;-60
2022/07/25 01:24:09;;;;;;;8.73;6.45;;;19.50;99.90;;;;;;5052994;28;20025;-59
2022/07/25 01:26:36;;;;;;;9.43;5.85;;;19.50;99.90;;;;;;5054206;28;20099;-59
2022/07/25 01:29:03;;;;;;;7.30;5.82;;;19.40;99.90;;;;;;5052624;28;20107;-58
2022/07/25 01:31:29;;;;;;;8.82;6.47;;;19.40;99.90;;;;;;5052436;28;20025;-58
2022/07/25 01:33:55;;;;;;;8.57;6.18;;;19.30;99.90;;;;;;5053832;28;20108;-59
2022/07/25 01:36:20;;;;;;;8.70;6.22;;;19.30;99.90;;;;;;5052498;28;20023;-59
2022/07/25 01:38:46;;;;;;;10.57;6.93;;;19.20;99.90;;;;;;5053760;28;20052;-58
2022/07/25 01:41:12;;;;;;;14.07;6.53;;;19.10;99.90;;;;;;5052913;28;20051;-56
2022/07/25 01:43:37;;;;;;;11.48;6.28;;;19.10;99.90;;;;;;5052425;28;20075;-57
2022/07/25 01:46:03;;;;;;;10.27;6.13;;;19.10;99.90;;;;;;5053600;28;20025;-57
2022/07/25 01:48:29;;;;;;;9.23;5.95;;;19.10;99.90;;;;;;5052275;28;20094;-59
2022/07/25 01:50:54;;;;;;;10.55;5.85;;;19.10;99.90;;;;;;5052342;28;20426;-58
2022/07/25 01:53:20;;;;;;;13.13;6.50;;;19.10;99.90;;;;;;5053474;28;20025;-59
2022/07/25 01:55:46;;;;;;;10.48;6.40;;;19.10;99.90;;;;;;5052138;28;20103;-59
2022/07/25 01:58:12;;;;;;;10.25;6.38;;;19.20;99.90;;;;;;5053447;28;20021;-59
2022/07/25 02:00:38;;;;;;;13.77;6.35;;;19.10;99.90;;;;;;5052017;28;20055;-59
2022/07/25 02:05:49;;;;;;;9.18;6.80;;;19.00;99.90;;;;;;5053203;28;20106;-57
2022/07/25 02:08:15;;;;;;;9.60;6.47;;;19.00;99.90;;;;;;5051839;28;20056;-59
2022/07/25 02:10:40;;;;;;;10.73;6.43;;;18.90;99.90;;;;;;5052824;28;20040;-59
2022/07/25 02:13:06;;;;;;;7.97;6.22;;;18.90;99.90;;;;;;5052828;28;20020;-60
2022/07/25 02:15:32;;;;;;;7.50;5.80;;;18.90;99.90;;;;;;5052531;28;20071;-57
2022/07/25 02:17:57;;;;;;;9.18;5.80;;;19.00;99.90;;;;;;5051993;28;20024;-58
2022/07/25 02:20:23;;;;;;;9.15;5.97;;;18.90;99.90;;;;;;5053236;28;20376;-58
2022/07/25 02:22:48;;;;;;;7.68;6.07;;;18.90;99.90;;;;;;5051778;28;20025;-56
2022/07/25 02:25:14;;;;;;;10.02;6.10;;;18.90;99.90;;;;;;5053716;28;20025;-60
2022/07/25 02:27:40;;;;;;;8.88;6.18;;;18.90;99.90;;;;;;5052226;28;20056;-59
2022/07/25 02:30:07;;;;;;;8.05;6.43;;;18.90;99.90;;;;;;5051936;28;20029;-60
2022/07/25 02:32:33;;;;;;;8.52;6.22;;;18.90;99.90;;;;;;5052055;28;20032;-60
2022/07/25 02:34:58;;;;;;;9.82;5.68;;;18.90;99.90;;;;;;5052140;28;20029;-60
2022/07/25 02:37:24;;;;;;;9.05;6.18;;;18.90;99.90;;;;;;5052665;28;20025;-58
2022/07/25 02:39:50;;;;;;;8.73;6.18;;;18.80;99.90;;;;;;5051999;28;20029;-59
2022/07/25 02:42:15;;;;;;;10.13;6.68;;;18.80;99.90;;;;;;5052552;28;20036;-59
2022/07/25 02:44:41;;;;;;;12.05;6.63;;;18.90;99.90;;;;;;5051775;28;20021;-60
2022/07/25 02:47:06;;;;;;;9.18;6.88;;;18.90;99.90;;;;;;5053727;28;20033;-58
2022/07/25 02:49:32;;;;;;;9.50;6.93;;;18.90;99.90;;;;;;5052421;28;20067;-59
2022/07/25 02:51:58;;;;;;;9.90;6.68;;;18.90;99.90;;;;;;5051548;28;20025;-59
2022/07/25 02:54:23;;;;;;;12.07;7.28;;;18.90;99.90;;;;;;5053092;28;20079;-59
2022/07/25 02:56:49;;;;;;;15.27;7.43;;;18.80;99.90;;;;;;5052439;28;20017;-59
2022/07/25 02:59:15;;;;;;;10.57;6.95;;;18.70;99.90;;;;;;5052474;28;20071;-56
2022/07/25 03:01:40;;;;;;;14.77;7.20;;;18.70;99.90;;;;;;5052371;28;20116;-58
2022/07/25 03:04:06;;;;;;;8.20;6.35;;;18.60;99.90;;;;;;5052833;28;20475;-59
2022/07/25 03:06:32;;;;;;;11.00;7.03;;;18.50;99.90;;;;;;5051284;28;20125;-59
2022/07/25 03:08:57;;;;;;;9.43;6.03;;;18.40;99.90;;;;;;5052661;28;20036;-59
2022/07/25 03:11:23;;;;;;;9.82;7.10;;;18.40;99.90;;;;;;5051528;28;20025;-58
2022/07/25 03:13:49;;;;;;;15.88;9.20;;;18.40;99.90;;;;;;5052913;28;20100;-58
2022/07/25 03:16:15;;;;;;;14.95;7.72;;;18.40;99.90;;;;;;5052644;28;20021;-59
2022/07/25 03:18:40;;;;;;;13.32;7.00;;;18.50;99.90;;;;;;5053909;28;20052;-59
2022/07/25 03:21:06;;;;;;;10.15;6.63;;;18.40;99.90;;;;;;5055109;28;20069;-59
2022/07/25 03:23:32;;;;;;;11.48;7.18;;;18.40;99.90;;;;;;5056181;28;20066;-58
2022/07/25 03:25:58;;;;;;;12.43;7.63;;;18.40;99.90;;;;;;5054939;28;20025;-59
2022/07/25 03:28:24;;;;;;;13.07;7.80;;;18.30;99.90;;;;;;5055735;28;20056;-59
2022/07/25 03:30:50;;;;;;;8.93;7.10;;;18.40;99.90;;;;;;5055972;28;20045;-59
2022/07/25 03:33:16;;;;;;;11.30;7.38;;;18.40;99.90;;;;;;5055916;28;20147;-59
2022/07/25 03:35:42;;;;;;;8.93;6.93;;;18.40;99.90;;;;;;5054979;28;20048;-60
2022/07/25 03:38:07;;;;;;;13.35;9.27;;;18.40;99.90;;;;;;5055991;28;20021;-58
2022/07/25 03:40:33;;;;;;;10.55;7.30;;;18.30;99.90;;;;;;5055418;28;20017;-59
2022/07/25 03:42:58;;;;;;;9.90;6.90;;;18.30;99.90;;;;;;5056010;28;20021;-59
2022/07/25 03:45:24;;;;;;;15.63;9.45;;;18.30;99.90;;;;;;5055763;28;20510;-60
2022/07/25 03:47:50;;;;;;;10.80;7.13;;;18.30;99.90;;;;;;5055013;28;20082;-60
2022/07/25 03:50:15;;;;;;;11.35;6.93;;;18.30;99.90;;;;;;5055528;28;20387;-58
2022/07/25 03:52:41;;;;;;;9.80;6.45;;;18.30;99.90;;;;;;5054401;28;20092;-57
2022/07/25 03:55:09;;;;;;;11.73;7.20;;;18.30;99.90;;;;;;5054647;28;20025;-58
2022/07/25 03:57:35;;;;;;;9.30;6.47;;;18.30;99.90;;;;;;5055612;28;20028;-59
2022/07/25 04:00:00;;;;;;;16.33;7.18;;;18.40;99.90;;;;;;5054217;28;20112;-57
2022/07/25 04:02:26;;;;;;;10.43;6.65;;;18.40;99.90;;;;;;5054529;28;20063;-58
2022/07/25 04:04:52;;;;;;;13.45;7.20;;;18.40;99.90;;;;;;5054168;28;20120;-59
2022/07/25 04:07:18;;;;;;;8.93;6.18;;;18.40;99.90;;;;;;5054110;28;20051;-59
2022/07/25 04:09:43;;;;;;;9.68;6.82;;;18.50;99.90;;;;;;5054941;28;20054;-59
2022/07/25 04:12:09;;;;;;;9.02;6.47;;;18.60;99.90;;;;;;5054864;28;20041;-58
2022/07/25 04:14:35;;;;;;;10.90;6.70;;;18.70;99.90;;;;;;5054073;28;20116;-59
2022/07/25 04:17:01;;;;;;;8.98;6.85;;;18.70;99.90;;;;;;5053756;28;20110;-57
2022/07/25 04:19:26;;;;;;;12.50;7.55;;;18.90;99.90;;;;;;5054175;28;20032;-58
2022/07/25 04:21:52;;;;;;;10.13;7.10;;;19.10;99.90;;;;;;5054986;28;20492;-59
2022/07/25 04:24:18;;;;;;;11.35;6.78;;;19.20;99.90;;;;;;5053766;28;20095;-59
2022/07/25 04:26:43;;;;;;;9.75;6.47;;;19.50;99.90;;;;;;5054927;28;20029;-60
2022/07/25 04:29:09;;;;;;;10.55;7.20;;;19.70;99.90;;;;;;5053874;28;20025;-60
2022/07/25 04:31:34;;;;;;;8.05;6.40;;;19.90;99.90;;;;;;5055041;28;20021;-59
2022/07/25 04:34:00;;;;;;;12.27;7.15;;;20.10;99.90;;;;;;5054299;28;20095;-59
2022/07/25 04:36:26;;;;;;;11.40;6.18;;;20.30;99.90;;;;;;5054288;28;20121;-60
2022/07/25 04:38:52;;;;;;;11.10;6.57;;;20.60;99.90;;;;;;5053708;28;20067;-59
2022/07/25 04:41:18;;;;;;;11.98;7.85;;;20.80;99.90;;;;;;5054696;28;20029;-58
2022/07/25 04:43:43;;;;;;;12.57;7.25;;;21.10;99.90;;;;;;5053474;28;20086;-59
2022/07/25 04:46:09;;;;;;;7.57;6.32;;;21.30;99.90;;;;;;5053338;28;20112;-60
2022/07/25 04:48:35;;;;;;;12.43;6.72;;;21.40;99.90;;;;;;5053395;28;20391;-59
2022/07/25 04:51:01;;;;;;;17.63;11.38;;;21.70;99.90;;;;;;5053970;28;20032;-60
2022/07/25 04:53:26;;;;;;;14.52;7.22;;;22.00;99.90;;;;;;5054616;28;20025;-59
2022/07/25 04:55:52;;;;;;;12.20;6.78;;;22.40;99.90;;;;;;5054531;28;20021;-60
2022/07/25 04:58:18;;;;;;;10.20;7.07;;;22.70;99.90;;;;;;5054550;28;20022;-57
2022/07/25 05:00:44;;;;;;;12.30;7.10;;;23.10;99.90;;;;;;5054412;28;20104;-59
2022/07/25 05:03:10;;;;;;;12.40;6.90;;;23.40;99.90;;;;;;5053535;28;20056;-57
2022/07/25 05:05:35;;;;;;;7.95;6.40;;;23.70;99.90;;;;;;5053557;28;20155;-59
2022/07/25 05:08:02;;;;;;;7.97;6.13;;;24.10;99.90;;;;;;5053111;28;20040;-60
2022/07/25 05:10:28;;;;;;;8.93;6.65;;;24.50;99.90;;;;;;5054039;28;20033;-60
2022/07/25 05:12:54;;;;;;;10.50;6.57;;;24.90;99.90;;;;;;5054383;28;20047;-60
2022/07/25 05:15:20;;;;;;;8.25;6.95;;;25.20;99.90;;;;;;5053145;28;20476;-58
2022/07/25 05:17:45;;;;;;;9.38;7.10;;;25.40;99.90;;;;;;5064293;22;20153;-56
2022/07/25 05:20:12;;;;;;;11.13;7.07;;;25.70;99.90;;;;;;4994406;28;20034;-54
2022/07/25 05:22:38;;;;;;;9.77;7.40;;;26.00;99.90;;;;;;4994771;28;20037;-53
2022/07/25 05:25:08;;;;;;;7.45;6.40;;;26.30;99.90;;;;;;4994056;28;20030;-51
2022/07/25 05:27:34;;;;;;;8.13;6.00;;;26.60;99.90;;;;;;4993408;28;20026;-51
2022/07/25 05:29:59;;;;;;;8.07;6.53;;;26.90;99.90;;;;;;4993731;28;20026;-54
2022/07/25 05:32:25;;;;;;;12.45;7.13;;;27.20;99.90;;;;;;4994482;28;20030;-53
2022/07/25 05:34:51;;;;;;;9.52;6.53;;;27.40;99.90;;;;;;4993442;28;20026;-55
2022/07/25 05:37:16;;;;;;;8.93;6.72;;;27.80;99.90;;;;;;4993214;28;20042;-56
2022/07/25 05:39:42;;;;;;;11.43;6.75;;;27.90;99.90;;;;;;4993282;28;20026;-54
2022/07/25 05:42:08;;;;;;;8.00;5.95;;;28.30;99.90;;;;;;4993610;28;20140;-53
2022/07/25 05:44:34;;;;;;;10.95;7.00;;;28.60;99.90;;;;;;4993194;28;20058;-53
2022/07/25 05:47:00;;;;;;;8.85;7.13;;;29.10;99.90;;;;;;4993039;28;20022;-50
2022/07/25 05:49:25;;;;;;;11.88;8.13;;;29.40;99.90;;;;;;4994209;28;20026;-56
2022/07/25 05:51:51;;;;;;;11.07;7.00;;;29.70;99.90;;;;;;4994491;28;20032;-57
2022/07/25 05:54:17;;;;;;;12.25;7.20;;;30.00;99.50;;;;;;4993022;28;20061;-56
2022/07/25 05:56:42;;;;;;;9.80;7.22;;;30.10;98.20;;;;;;4993047;28;20026;-57
2022/07/25 05:59:08;;;;;;;8.00;6.90;;;30.40;97.80;;;;;;4992940;28;20029;-53
2022/07/25 06:01:34;;;;;;;7.22;6.13;;;30.70;96.80;;;;;;4994199;28;20030;-54
2022/07/25 06:04:00;;;;;;;8.82;6.45;;;31.10;96.60;;;;;;4992922;28;20030;-56
2022/07/25 06:06:25;;;;;;;8.18;6.47;;;31.50;95.10;;;;;;4992845;28;20027;-55
2022/07/25 06:08:51;;;;;;;7.03;6.32;;;32.00;93.80;;;;;;4993062;28;20042;-53
2022/07/25 06:11:16;;;;;;;9.20;6.32;;;32.40;92.30;;;;;;4992763;28;20038;-52
2022/07/25 06:13:42;;;;;;;7.20;5.72;;;32.70;91.40;;;;;;4992826;28;20033;-53
2022/07/25 06:16:07;;;;;;;8.93;6.32;;;33.00;91.30;;;;;;4992805;28;20031;-55
2022/07/25 06:18:33;;;;;;;7.90;6.70;;;33.40;89.20;;;;;;4993398;28;20034;-57
2022/07/25 06:20:59;;;;;;;8.30;6.20;;;33.80;88.70;;;;;;4992661;28;20026;-56
2022/07/25 06:23:25;;;;;;;12.23;7.40;;;34.20;85.90;;;;;;4993838;28;20031;-56
2022/07/25 06:25:51;;;;;;;6.68;5.88;;;34.30;83.30;;;;;;4992800;28;20484;-57
2022/07/25 06:28:16;;;;;;;9.90;6.47;;;34.00;87.00;;;;;;4993098;28;20033;-56
2022/07/25 06:30:43;;;;;;;8.52;6.80;;;34.40;83.70;;;;;;4993300;28;20103;-57
2022/07/25 06:33:09;;;;;;;9.40;6.85;;;34.70;82.60;;;;;;4992652;28;20030;-57
2022/07/25 06:35:35;;;;;;;6.28;5.68;;;35.20;80.40;;;;;;4993174;28;20113;-57
2022/07/25 06:38:01;;;;;;;7.18;6.43;;;35.70;79.80;;;;;;4992570;28;20037;-55
2022/07/25 06:40:27;;;;;;;8.55;7.15;;;36.10;78.40;;;;;;4993769;28;20023;-56
2022/07/25 06:42:52;;;;;;;9.45;6.65;;;36.10;76.00;;;;;;4992537;28;20073;-55
2022/07/25 06:45:18;;;;;;;8.55;7.40;;;36.30;75.10;;;;;;4993755;28;20118;-57
2022/07/25 06:47:44;;;;;;;8.23;6.65;;;36.50;74.20;;;;;;4992797;28;20022;-56
2022/07/25 06:50:12;;;;;;;9.20;7.07;;;36.70;73.60;;;;;;4992639;28;20384;-52
2022/07/25 06:52:38;;;;;;;7.70;6.60;;;37.00;73.70;;;;;;4993758;28;20388;-57
2022/07/25 06:55:05;;;;;;;11.70;7.25;;;37.50;71.60;;;;;;4997370;28;20449;-56
2022/07/25 06:57:30;;;;;;;6.28;5.68;;;37.80;69.70;;;;;;4996137;28;20507;-56
2022/07/25 06:59:56;;;;;;;7.10;6.43;;;37.80;69.90;;;;;;4996226;28;20026;-57
2022/07/25 07:02:22;;;;;;;8.85;6.70;;;38.10;68.60;;;;;;4997394;28;20105;-57
2022/07/25 07:04:48;;;;;;;7.90;7.10;;;38.40;68.50;;;;;;4997158;28;20022;-57
2022/07/25 07:07:15;;;;;;;7.25;5.72;;;38.60;66.30;;;;;;4997507;28;20037;-56
2022/07/25 07:09:41;;;;;;;7.97;6.68;;;39.20;66.50;;;;;;4996042;28;20026;-57
2022/07/25 07:12:07;;;;;;;8.70;7.53;;;39.40;63.80;;;;;;4996214;28;20058;-57
2022/07/25 07:14:33;;;;;;;10.10;7.32;;;39.50;62.70;;;;;;4996189;28;20033;-57
2022/07/25 07:16:58;;;;;;;6.85;6.20;;;39.10;63.60;;;;;;4995908;28;20018;-57
2022/07/25 07:19:24;;;;;;;9.10;6.72;;;38.60;64.60;;;;;;4996088;28;20455;-57
2022/07/25 07:21:50;;;;;;;11.45;7.68;;;39.30;62.50;;;;;;4996104;28;20439;-58
2022/07/25 07:24:16;;;;;;;8.13;7.15;;;39.00;61.40;;;;;;4997065;28;20033;-57
2022/07/25 07:26:42;;;;;;;10.40;7.38;;;39.40;61.30;;;;;;4997023;28;20110;-56
2022/07/25 07:29:08;;;;;;;12.00;7.75;;;39.10;61.10;;;;;;4995642;28;20089;-57
2022/07/25 07:31:33;;;;;;;10.38;7.47;;;38.10;61.30;;;;;;4995568;28;20027;-55
2022/07/25 07:33:59;;;;;;;7.60;6.90;;;38.40;61.40;;;;;;4995344;28;20025;-56
2022/07/25 07:36:25;;;;;;;12.32;7.55;;;37.50;61.70;;;;;;4996171;28;20081;-55
2022/07/25 07:38:51;;;;;;;12.55;7.00;;;37.00;62.60;;;;;;4995257;28;20045;-57
2022/07/25 07:41:18;;;;;;;8.05;7.05;;;37.90;62.00;;;;;;4996532;28;20392;-57
2022/07/25 07:43:44;;;;;;;7.63;6.78;;;37.80;62.70;;;;;;4995206;28;20030;-57
2022/07/25 07:46:09;;;;;;;10.55;7.20;;;37.60;62.80;;;;;;4995122;28;20027;-57
2022/07/25 07:48:35;;;;;;;7.75;6.95;;;37.20;63.10;;;;;;4995310;28;20031;-51
2022/07/25 07:51:01;;;;;;;8.10;7.30;;;37.20;64.50;;;;;;4995457;28;20026;-54
2022/07/25 07:56:13;;;;;;;8.13;7.32;;;38.80;61.10;;;;;;4996773;28;20037;-53
2022/07/25 07:58:39;;;;;;;9.40;8.23;;;38.40;61.30;;;;;;4995152;28;20079;-52
2022/07/25 08:01:04;;;;;;;8.27;6.55;;;38.30;60.70;;;;;;4995220;28;20022;-52
2022/07/25 08:03:30;;;;;;;7.50;6.85;;;37.90;61.70;;;;;;4995124;28;20026;-57
2022/07/25 08:05:55;;;;;;;7.47;6.75;;;38.90;62.30;;;;;;4994534;28;20018;-51
2022/07/25 08:08:22;;;;;;;7.40;6.55;;;39.60;59.80;;;;;;4994693;28;20026;-55
2022/07/25 08:10:48;;;;;;;10.45;7.05;;;40.30;58.60;;;;;;4994630;28;20369;-50
2022/07/25 08:13:16;;;;;;;10.25;7.07;;;40.40;58.10;;;;;;4994531;28;20022;-55
2022/07/25 08:15:45;;;;;;;14.20;8.13;;;40.00;58.60;;;;;;4994571;28;20101;-54
2022/07/25 08:18:11;;;;;;;10.82;6.55;;;40.80;58.50;;;;;;4994673;28;20074;-52
2022/07/25 08:20:37;;;;;;;8.50;7.05;;;41.80;56.40;;;;;;4994917;28;20066;-52
2022/07/25 08:23:03;;;;;;;10.50;7.82;;;42.90;56.00;;;;;;4995688;28;20095;-57
2022/07/25 08:25:30;;;;;;;8.63;7.72;;;41.10;55.80;;;;;;4994496;28;20026;-55
2022/07/25 08:27:55;;;;;;;8.32;7.07;;;39.90;56.70;;;;;;4994393;28;20081;-55
2022/07/25 08:30:21;;;;;;;10.57;7.55;;;40.30;57.70;;;;;;4994384;28;20026;-54
2022/07/25 08:32:51;;;;;;;8.95;6.88;;;41.40;56.30;;;;;;4994216;28;20057;-53
2022/07/25 08:35:18;;;;;;;7.72;6.97;;;42.30;54.50;;;;;;4994278;28;20037;-55
2022/07/25 08:37:44;;;;;;;8.38;7.25;;;42.20;53.80;;;;;;4994054;28;20044;-57
2022/07/25 08:40:12;;;;;;;8.48;7.25;;;42.70;53.40;;;;;;4994175;28;20072;-55
2022/07/25 08:42:39;;;;;;;8.85;7.70;;;43.00;53.60;;;;;;4994351;28;20097;-57
2022/07/25 08:45:06;;;;;;;8.10;7.30;;;43.20;52.60;;;;;;4994387;28;20030;-55
2022/07/25 08:47:31;;;;;;;8.60;7.80;;;42.10;53.40;;;;;;4993899;28;20034;-54
2022/07/25 08:49:57;;;;;;;8.20;6.80;;;40.70;54.30;;;;;;4995218;28;20081;-57
2022/07/25 08:52:23;;;;;;;8.15;7.40;;;40.90;55.80;;;;;;4995062;28;20027;-52
2022/07/25 08:54:50;;;;;;;10.57;6.82;;;41.30;54.00;;;;;;4995577;28;20050;-56
2022/07/25 08:57:16;;;;;;;9.60;7.80;;;40.10;55.80;;;;;;4995173;28;20026;-54
2022/07/25 08:59:42;;;;;;;10.35;7.22;;;39.20;56.30;;;;;;4994174;28;20018;-51
2022/07/25 09:02:15;;;;;;;10.98;7.40;;;39.00;56.60;;;;;;4994728;28;20026;-56
2022/07/25 09:04:42;;;;;;;7.63;6.80;;;38.90;57.60;;;;;;4993989;28;20066;-55
2022/07/25 09:07:08;;;;;;;10.32;7.65;;;39.00;56.60;;;;;;4993875;28;20037;-54
2022/07/25 09:09:37;;;;;;;11.65;8.07;;;39.00;57.30;;;;;;4994882;28;20109;-57
2022/07/25 09:12:06;;;;;;;8.45;7.07;;;38.90;57.20;;;;;;4994729;28;20559;-57
2022/07/25 09:14:42;;;;;;;7.95;7.15;;;39.60;57.50;;;;;;4994983;28;20029;-53
2022/07/25 09:17:08;;;;;;;8.77;7.53;;;40.60;57.10;;;;;;4992877;28;20031;-53
2022/07/25 09:19:34;;;;;;;11.60;7.60;;;41.20;55.90;;;;;;4993499;28;20045;-56
2022/07/25 09:22:05;;;;;;;10.40;7.38;;;40.90;55.70;;;;;;4993567;28;20033;-55
2022/07/25 09:24:31;;;;;;;13.05;7.57;;;40.50;56.30;;;;;;4994326;28;20023;-57
2022/07/25 09:26:59;;;;;;;15.48;7.63;;;39.80;56.40;;;;;;4993398;28;20088;-56
2022/07/25 09:29:27;;;;;;;9.57;7.45;;;38.20;58.50;;;;;;4994669;28;20030;-53
2022/07/25 09:31:54;;;;;;;8.32;7.50;;;37.70;59.70;;;;;;4994748;28;20472;-52
2022/07/25 09:34:30;;;;;;;9.93;7.88;;;37.80;59.70;;;;;;4994545;28;20527;-54
2022/07/25 09:36:57;;;;;;;10.70;8.27;;;38.80;58.40;;;;;;4994512;28;20014;-52
2022/07/25 09:39:44;;;;;;;14.05;7.65;;;39.10;57.50;;;;;;4993230;28;20019;-50
2022/07/25 09:42:28;;;;;;;8.93;7.97;;;38.60;58.10;;;;;;4993207;28;20026;-54
2022/07/25 09:45:06;;;;;;;11.00;8.40;;;37.50;59.40;;;;;;4994861;28;20030;-54
2022/07/25 09:47:35;;;;;;;11.32;7.55;;;37.20;60.40;;;;;;4994614;28;20053;-53
2022/07/25 09:50:01;;;;;;;11.45;7.68;;;37.20;60.30;;;;;;4994497;28;20053;-49
2022/07/25 09:52:27;;;;;;;9.25;7.82;;;37.00;60.20;;;;;;4994510;28;20413;-47
2022/07/25 09:54:53;;;;;;;10.52;8.40;;;36.60;61.30;;;;;;4993951;28;20022;-49
2022/07/25 09:57:20;;;;;;;11.20;8.00;;;36.30;62.10;;;;;;4994420;28;20029;-48
2022/07/25 09:59:46;;;;;;;12.15;7.53;;;35.90;62.50;;;;;;4993577;28;20045;-48
2022/07/25 10:02:26;;;;;;;16.33;8.48;;;36.50;62.10;;;;;;4993256;28;20026;-48
2022/07/25 10:05:14;;;;;;;10.23;8.05;;;37.80;60.50;;;;;;4994466;28;20026;-51
2022/07/25 10:07:44;;;;;;;9.52;7.90;;;37.90;59.40;;;;;;4989372;28;20030;-49
2022/07/25 10:10:29;;;;;;;12.45;7.72;;;37.40;60.00;;;;;;4992881;28;20493;-50
2022/07/25 10:13:04;;;;;;;12.73;7.80;;;37.20;61.00;;;;;;4993969;28;20023;-51
2022/07/25 10:15:41;;;;;;;9.00;6.80;;;37.50;59.20;;;;;;4992741;28;20366;-50
2022/07/25 10:18:07;;;;;;;12.25;7.57;;;37.10;59.40;;;;;;4992966;28;20031;-47
2022/07/25 10:20:33;;;;;;;10.00;7.80;;;36.50;59.80;;;;;;4993011;28;20096;-48
2022/07/25 10:22:59;;;;;;;8.48;7.47;;;36.80;60.00;;;;;;4993964;28;20031;-47
2022/07/25 10:25:25;;;;;;;8.63;7.22;;;37.10;61.60;;;;;;4992750;28;20022;-49
2022/07/25 10:27:59;;;;;;;9.65;7.38;;;37.40;59.40;;;;;;4995270;28;20026;-52
2022/07/25 10:30:32;;;;;;;11.50;7.20;;;37.30;60.20;;;;;;4996851;28;20037;-49
2022/07/25 10:32:58;;;;;;;10.93;8.02;;;37.00;60.00;;;;;;4997237;28;20031;-47
2022/07/25 10:35:25;;;;;;;14.75;7.55;;;37.00;60.60;;;;;;4997667;28;20033;-47
2022/07/25 10:37:53;;;;;;;8.13;7.30;;;37.00;60.70;;;;;;4996440;28;20164;-46
2022/07/25 10:40:33;;;;;;;8.63;6.55;;;37.40;60.00;;;;;;4996716;28;20026;-54
2022/07/25 10:43:13;;;;;;;9.93;7.65;;;37.90;59.70;;;;;;4997452;28;20165;-48
2022/07/25 10:45:42;;;;;;;7.20;6.50;;;38.10;59.10;;;;;;4997196;28;20112;-49
2022/07/25 10:48:18;;;;;;;9.77;6.75;;;38.00;59.10;;;;;;4997015;28;20026;-48
2022/07/25 10:50:56;;;;;;;12.45;6.88;;;38.00;57.80;;;;;;4996368;28;20030;-46
2022/07/25 10:53:50;;;;;;;10.90;6.88;;;37.50;58.80;;;;;;4996549;28;20054;-46
2022/07/25 10:56:19;;;;;;;7.93;6.22;;;37.60;59.60;;;;;;4998169;28;20109;-50
2022/07/25 10:58:45;;;;;;;8.60;6.80;;;37.60;57.60;;;;;;4996268;28;20049;-48
2022/07/25 11:01:13;;;;;;;6.95;6.30;;;37.40;57.60;;;;;;4996481;28;20621;-50
2022/07/25 11:03:40;;;;;;;10.00;5.63;;;37.30;57.80;;;;;;4996387;28;20405;-52
2022/07/25 11:06:06;;;;;;;10.38;5.53;;;37.30;58.40;;;;;;4996379;28;20023;-53
2022/07/25 11:08:34;;;;;;;6.72;5.60;;;37.20;57.10;;;;;;4995878;28;20023;-49
2022/07/25 11:10:59;;;;;;;8.98;5.65;;;37.10;56.60;;;;;;4996692;28;20058;-51
2022/07/25 11:13:25;;;;;;;6.10;5.53;;;37.00;57.10;;;;;;4997523;28;20065;-51
2022/07/25 11:15:54;;;;;;;6.93;5.80;;;36.80;57.30;;;;;;4997097;28;20093;-50
2022/07/25 11:18:33;;;;;;;6.10;5.22;;;36.70;57.50;;;;;;4996439;28;20034;-50
2022/07/25 11:21:00;;;;;;;6.75;4.93;;;36.50;56.30;;;;;;4996369;28;20034;-50
2022/07/25 11:23:26;;;;;;;6.10;5.13;;;36.50;56.50;;;;;;4996084;28;20054;-51
2022/07/25 11:26:06;;;;;;;6.53;4.95;;;36.60;57.00;;;;;;4997227;28;20479;-52
2022/07/25 11:28:46;;;;;;;8.88;5.53;;;36.50;57.10;;;;;;4996566;28;20025;-50
2022/07/25 11:31:14;;;;;;;6.70;4.90;;;36.40;57.50;;;;;;4995565;28;20078;-53
2022/07/25 11:33:44;;;;;;;5.78;4.88;;;36.20;57.40;;;;;;4995609;28;20052;-54
2022/07/25 11:36:10;;;;;;;5.55;4.70;;;36.30;57.90;;;;;;4995998;28;20019;-51
2022/07/25 11:38:38;;;;;;;7.78;5.13;;;36.40;57.30;;;;;;4996604;28;20026;-50
2022/07/25 11:41:05;;;;;;;9.13;5.32;;;36.50;57.30;;;;;;4995952;28;20050;-51
2022/07/25 11:43:30;;;;;;;5.95;5.45;;;36.50;57.70;;;;;;4995622;28;20389;-49
2022/07/25 11:45:59;;;;;;;6.40;5.75;;;36.50;57.70;;;;;;4995611;28;20019;-51
2022/07/25 11:48:32;;;;;;;6.72;5.65;;;36.40;57.90;;;;;;4995591;28;20049;-51
2022/07/25 11:51:08;;;;;;;7.38;6.30;;;36.30;58.10;;;;;;4996185;28;20030;-53
2022/07/25 11:53:39;;;;;;;5.72;5.07;;;36.10;58.20;;;;;;4996668;28;20401;-54
2022/07/25 11:56:35;;;;;;;7.50;5.38;;;36.00;58.40;;;;;;4996460;28;20029;-55
2022/07/25 11:59:01;;;;;;;6.57;5.97;;;36.10;59.60;;;;;;4996647;28;20034;-53
2022/07/25 12:01:41;;;;;;;7.88;5.65;;;36.10;58.80;;;;;;4995028;28;20031;-53
2022/07/25 12:04:16;;;;;;;8.20;6.25;;;36.10;58.90;;;;;;4996349;28;20026;-55
2022/07/25 12:06:43;;;;;;;6.72;5.72;;;36.00;59.30;;;;;;4995011;28;20037;-50
2022/07/25 12:09:17;;;;;;;7.45;6.22;;;35.90;58.90;;;;;;4996164;28;20030;-50
2022/07/25 12:11:43;;;;;;;12.10;6.55;;;35.80;59.00;;;;;;4995971;28;20076;-50
2022/07/25 12:14:10;;;;;;;14.32;6.85;;;35.60;59.90;;;;;;4995951;28;20062;-52
2022/07/25 12:16:36;;;;;;;9.65;5.88;;;35.40;59.80;;;;;;4996024;28;20026;-49
2022/07/25 12:19:03;;;;;;;10.27;6.55;;;35.30;60.50;;;;;;4994461;28;20063;-49
2022/07/25 12:21:29;;;;;;;8.38;5.70;;;35.20;60.40;;;;;;4994686;28;20074;-52
2022/07/25 12:23:55;;;;;;;8.95;5.35;;;35.20;60.20;;;;;;4994667;28;20046;-52
2022/07/25 12:26:21;;;;;;;6.13;5.32;;;35.20;60.30;;;;;;4994643;28;20037;-50
2022/07/25 12:28:46;;;;;;;7.38;5.10;;;35.10;59.90;;;;;;4994473;28;20392;-49
2022/07/25 12:31:12;;;;;;;7.88;4.88;;;35.10;60.10;;;;;;4994447;28;20029;-52
2022/07/25 12:33:37;;;;;;;11.63;4.93;;;35.00;60.80;;;;;;4994498;28;20023;-54
2022/07/25 12:36:03;;;;;;;10.32;4.53;;;34.90;59.90;;;;;;4994471;28;20073;-52
2022/07/25 12:38:29;;;;;;;5.82;5.22;;;34.90;59.90;;;;;;4994726;28;20030;-48
2022/07/25 12:40:55;;;;;;;5.50;4.53;;;34.80;59.70;;;;;;4994371;28;20026;-48
2022/07/25 12:43:21;;;;;;;6.00;5.10;;;34.50;60.20;;;;;;4994555;28;20041;-53
2022/07/25 12:45:46;;;;;;;5.20;4.70;;;34.40;60.80;;;;;;4995322;28;20023;-54
2022/07/25 12:48:13;;;;;;;6.25;4.45;;;34.30;60.50;;;;;;4994219;28;20037;-50